createdAt,value
2016-10-11T00:00:12.263Z,82.32
2016-10-11T00:00:33.985Z,82.19
2016-10-11T00:00:55.700Z,82.27
2016-10-11T00:01:17.424Z,82.23
2016-10-11T00:01:39.133Z,82.33
2016-10-11T00:02:00.848Z,82.63
2016-10-11T00:02:22.571Z,82.72
2016-10-11T00:02:44.284Z,82.82
2016-10-11T00:03:05.993Z,82.91
2016-10-11T00:03:27.701Z,82.75
2016-10-11T00:03:49.421Z,82.45
2016-10-11T00:04:11.129Z,82.22
2016-10-11T00:04:32.839Z,82.19
2016-10-11T00:04:54.561Z,82.09
2016-10-11T00:05:16.264Z,81.85
2016-10-11T00:05:37.975Z,81.85
2016-10-11T00:05:59.694Z,81.99
2016-10-11T00:06:21.409Z,81.95
2016-10-11T00:06:43.126Z,81.86
2016-10-11T00:07:04.849Z,81.85
2016-10-11T00:07:26.563Z,81.91
2016-10-11T00:07:48.280Z,81.97
2016-10-11T00:08:09.989Z,82.09
2016-10-11T00:08:31.696Z,82.11
2016-10-11T00:08:53.414Z,82.05
2016-10-11T00:09:15.122Z,82.14
2016-10-11T00:09:36.845Z,82.04
2016-10-11T00:09:58.560Z,82.01
2016-10-11T00:10:20.271Z,82.07
2016-10-11T00:10:41.982Z,82.04
2016-10-11T00:11:03.689Z,81.96
2016-10-11T00:11:25.408Z,82.00
2016-10-11T00:11:47.119Z,81.92
2016-10-11T00:12:08.833Z,82.05
2016-10-11T00:12:30.551Z,82.17
2016-10-11T00:12:52.269Z,82.06
2016-10-11T00:13:13.981Z,82.13
2016-10-11T00:13:35.690Z,82.26
2016-10-11T00:13:57.407Z,82.30
2016-10-11T00:14:19.110Z,82.20
2016-10-11T00:14:40.835Z,82.30
2016-10-11T00:15:02.554Z,82.40
2016-10-11T00:15:24.257Z,82.88
2016-10-11T00:15:45.981Z,83.31
2016-10-11T00:16:07.712Z,83.45
2016-10-11T00:16:29.429Z,83.60
2016-10-11T00:16:51.134Z,83.40
2016-10-11T00:17:12.864Z,83.30
2016-10-11T00:17:34.575Z,83.17
2016-10-11T00:17:56.288Z,82.93
2016-10-11T00:18:17.998Z,82.79
2016-10-11T00:18:39.714Z,82.62
2016-10-11T00:19:01.425Z,82.63
2016-10-11T00:19:23.136Z,82.75
2016-10-11T00:19:44.860Z,82.71
2016-10-11T00:20:06.578Z,82.54
2016-10-11T00:20:28.286Z,82.46
2016-10-11T00:20:50.001Z,82.25
2016-10-11T00:21:11.721Z,82.24
2016-10-11T00:21:33.450Z,82.28
2016-10-11T00:21:55.157Z,82.42
2016-10-11T00:22:16.870Z,82.56
2016-10-11T00:22:43.363Z,82.59
2016-10-11T00:23:05.075Z,82.45
2016-10-11T00:23:29.708Z,82.31
2016-10-11T00:23:51.422Z,82.24
2016-10-11T00:24:13.129Z,82.22
2016-10-11T00:24:37.769Z,82.39
2016-10-11T00:24:59.476Z,82.56
2016-10-11T00:25:21.182Z,82.61
2016-10-11T00:25:42.894Z,82.71
2016-10-11T00:26:04.607Z,82.61
2016-10-11T00:26:26.319Z,82.67
2016-10-11T00:26:48.033Z,82.77
2016-10-11T00:27:09.741Z,82.95
2016-10-11T00:27:31.462Z,83.17
2016-10-11T00:27:53.172Z,83.19
2016-10-11T00:28:14.884Z,83.31
2016-10-11T00:28:36.591Z,83.09
2016-10-11T00:28:58.302Z,82.92
2016-10-11T00:29:20.015Z,82.70
2016-10-11T00:29:41.729Z,82.62
2016-10-11T00:30:03.439Z,82.58
2016-10-11T00:30:25.150Z,82.72
2016-10-11T00:30:46.859Z,82.66
2016-10-11T00:31:08.620Z,82.54
2016-10-11T00:31:30.329Z,82.56
2016-10-11T00:31:52.039Z,82.67
2016-10-11T00:32:13.755Z,82.76
2016-10-11T00:32:35.471Z,82.64
2016-10-11T00:32:57.187Z,82.65
2016-10-11T00:33:18.905Z,82.77
2016-10-11T00:33:40.626Z,82.82
2016-10-11T00:34:02.335Z,82.81
2016-10-11T00:34:24.049Z,82.74
2016-10-11T00:34:45.759Z,82.57
2016-10-11T00:35:07.473Z,82.46
2016-10-11T00:35:29.183Z,82.32
2016-10-11T00:35:50.891Z,82.55
2016-10-11T00:36:12.605Z,82.62
2016-10-11T00:36:34.316Z,82.60
2016-10-11T00:36:56.025Z,82.38
2016-10-11T00:37:17.743Z,82.63
2016-10-11T00:37:39.460Z,82.52
2016-10-11T00:38:01.176Z,82.60
2016-10-11T00:38:22.884Z,82.57
2016-10-11T00:38:44.594Z,82.49
2016-10-11T00:39:06.307Z,82.66
2016-10-11T00:39:28.035Z,82.61
2016-10-11T00:39:49.745Z,82.66
2016-10-11T00:40:11.455Z,82.70
2016-10-11T00:40:33.167Z,83.02
2016-10-11T00:40:54.881Z,83.31
2016-10-11T00:41:16.595Z,83.47
2016-10-11T00:41:43.079Z,83.27
2016-10-11T00:42:04.792Z,83.01
2016-10-11T00:42:26.507Z,82.88
2016-10-11T00:42:48.217Z,82.83
2016-10-11T00:43:09.929Z,82.61
2016-10-11T00:43:31.637Z,82.57
2016-10-11T00:43:53.350Z,82.83
2016-10-11T00:44:15.058Z,83.01
2016-10-11T00:44:36.782Z,83.09
2016-10-11T00:44:58.491Z,82.94
2016-10-11T00:45:20.205Z,82.76
2016-10-11T00:45:41.916Z,82.79
2016-10-11T00:46:03.635Z,82.78
2016-10-11T00:46:25.345Z,82.65
2016-10-11T00:46:47.048Z,82.49
2016-10-11T00:47:08.759Z,82.59
2016-10-11T00:47:30.471Z,82.56
2016-10-11T00:47:52.184Z,82.58
2016-10-11T00:48:13.899Z,82.65
2016-10-11T00:48:35.611Z,82.90
2016-10-11T00:48:57.335Z,82.96
2016-10-11T00:49:19.042Z,83.02
2016-10-11T00:49:40.757Z,82.93
2016-10-11T00:50:02.467Z,82.72
2016-10-11T00:50:24.177Z,82.69
2016-10-11T00:50:45.885Z,82.53
2016-10-11T00:51:07.600Z,82.45
2016-10-11T00:51:29.327Z,82.45
2016-10-11T00:51:51.044Z,82.26
2016-10-11T00:52:12.749Z,82.39
2016-10-11T00:52:34.461Z,82.45
2016-10-11T00:52:56.182Z,82.51
2016-10-11T00:53:17.901Z,82.59
2016-10-11T00:53:39.614Z,82.75
2016-10-11T00:54:01.327Z,83.07
2016-10-11T00:54:23.040Z,83.33
2016-10-11T00:54:44.756Z,83.37
2016-10-11T00:55:06.467Z,83.37
2016-10-11T00:55:28.186Z,83.18
2016-10-11T00:55:49.898Z,82.93
2016-10-11T00:56:11.607Z,83.07
2016-10-11T00:56:33.332Z,83.32
2016-10-11T00:56:55.043Z,83.38
2016-10-11T00:57:16.764Z,83.48
2016-10-11T00:57:38.477Z,83.37
2016-10-11T00:58:00.185Z,83.07
2016-10-11T00:58:21.896Z,83.00
2016-10-11T00:58:43.609Z,82.87
2016-10-11T00:59:05.336Z,82.67
2016-10-11T00:59:27.054Z,82.72
2016-10-11T00:59:48.775Z,82.66
2016-10-11T01:00:10.489Z,82.68
2016-10-11T01:00:36.980Z,82.44
2016-10-11T01:00:58.687Z,82.33
2016-10-11T01:01:20.396Z,82.43
2016-10-11T01:01:42.107Z,82.39
2016-10-11T01:02:03.817Z,82.41
2016-10-11T01:02:25.529Z,82.55
2016-10-11T01:02:47.237Z,82.93
2016-10-11T01:03:08.949Z,83.07
2016-10-11T01:03:30.661Z,83.24
2016-10-11T01:03:52.375Z,83.17
2016-10-11T01:04:14.086Z,83.02
2016-10-11T01:04:35.806Z,82.95
2016-10-11T01:04:57.525Z,82.90
2016-10-11T01:05:19.245Z,82.77
2016-10-11T01:05:40.953Z,82.80
2016-10-11T01:06:02.678Z,82.67
2016-10-11T01:06:24.385Z,82.72
2016-10-11T01:06:46.094Z,82.62
2016-10-11T01:07:07.803Z,82.54
2016-10-11T01:07:29.515Z,82.56
2016-10-11T01:07:51.234Z,82.82
2016-10-11T01:08:12.946Z,82.90
2016-10-11T01:08:34.660Z,82.98
2016-10-11T01:08:56.370Z,83.01
2016-10-11T01:09:18.079Z,83.10
2016-10-11T01:09:39.790Z,83.20
2016-10-11T01:10:01.499Z,83.13
2016-10-11T01:10:23.209Z,83.18
2016-10-11T01:10:44.955Z,83.24
2016-10-11T01:11:06.673Z,83.18
2016-10-11T01:11:28.384Z,83.07
2016-10-11T01:11:50.098Z,83.02
2016-10-11T01:12:15.685Z,83.16
2016-10-11T01:12:37.397Z,83.40
2016-10-11T01:12:59.111Z,83.53
2016-10-11T01:13:20.830Z,83.57
2016-10-11T01:13:42.540Z,83.65
2016-10-11T01:14:04.244Z,83.74
2016-10-11T01:14:25.953Z,83.71
2016-10-11T01:14:47.663Z,83.60
2016-10-11T01:15:09.371Z,83.48
2016-10-11T01:15:31.079Z,83.45
2016-10-11T01:15:52.790Z,83.37
2016-10-11T01:16:14.503Z,83.27
2016-10-11T01:16:40.991Z,83.14
2016-10-11T01:17:02.706Z,83.11
2016-10-11T01:17:24.419Z,83.28
2016-10-11T01:17:46.133Z,83.42
2016-10-11T01:18:07.856Z,83.54
2016-10-11T01:18:29.568Z,83.46
2016-10-11T01:18:51.277Z,83.47
2016-10-11T01:19:12.985Z,83.47
2016-10-11T01:19:34.705Z,83.40
2016-10-11T01:19:56.415Z,83.45
2016-10-11T01:20:18.128Z,83.33
2016-10-11T01:20:39.838Z,83.40
2016-10-11T01:21:01.551Z,83.51
2016-10-11T01:21:23.259Z,83.91
2016-10-11T01:21:44.968Z,84.01
2016-10-11T01:22:06.677Z,84.09
2016-10-11T01:22:28.387Z,84.12
2016-10-11T01:22:50.097Z,84.08
2016-10-11T01:23:11.813Z,83.95
2016-10-11T01:23:33.520Z,83.92
2016-10-11T01:23:55.236Z,83.70
2016-10-11T01:24:43.424Z,83.19
2016-10-11T01:25:05.132Z,83.03
2016-10-11T01:25:26.847Z,82.81
2016-10-11T01:25:48.557Z,82.58
2016-10-11T01:26:10.273Z,82.65
2016-10-11T01:26:31.989Z,82.64
2016-10-11T01:26:53.726Z,82.80
2016-10-11T01:27:18.142Z,82.99
2016-10-11T01:27:39.853Z,83.04
2016-10-11T01:28:01.562Z,82.97
2016-10-11T01:28:23.272Z,83.11
2016-10-11T01:28:44.981Z,83.02
2016-10-11T01:29:06.687Z,83.11
2016-10-11T01:29:28.396Z,83.05
2016-10-11T01:29:50.109Z,82.97
2016-10-11T01:30:11.836Z,83.22
2016-10-11T01:30:33.543Z,83.29
2016-10-11T01:30:55.263Z,83.52
2016-10-11T01:31:16.992Z,83.53
2016-10-11T01:31:38.693Z,83.36
2016-10-11T01:32:00.405Z,83.37
2016-10-11T01:32:22.115Z,83.35
2016-10-11T01:32:43.827Z,83.25
2016-10-11T01:33:05.544Z,83.31
2016-10-11T01:33:27.250Z,83.23
2016-10-11T01:33:48.978Z,83.19
2016-10-11T01:34:10.690Z,83.32
2016-10-11T01:34:32.400Z,83.44
2016-10-11T01:34:54.127Z,83.52
2016-10-11T01:35:15.837Z,83.60
2016-10-11T01:35:37.546Z,83.55
2016-10-11T01:35:59.265Z,83.21
2016-10-11T01:36:20.987Z,83.02
2016-10-11T01:36:42.695Z,82.86
2016-10-11T01:37:04.405Z,82.75
2016-10-11T01:37:26.114Z,82.72
2016-10-11T01:37:47.840Z,82.90
2016-10-11T01:38:09.548Z,82.85
2016-10-11T01:38:31.262Z,83.01
2016-10-11T01:38:52.980Z,83.18
2016-10-11T01:39:14.689Z,83.05
2016-10-11T01:39:36.396Z,83.06
2016-10-11T01:39:58.108Z,82.87
2016-10-11T01:40:19.831Z,82.83
2016-10-11T01:40:41.541Z,82.64
2016-10-11T01:41:03.256Z,82.72
2016-10-11T01:41:24.983Z,83.00
2016-10-11T01:41:46.698Z,83.14
2016-10-11T01:42:08.410Z,83.08
2016-10-11T01:42:30.119Z,82.99
2016-10-11T01:42:51.840Z,82.97
2016-10-11T01:43:13.551Z,82.84
2016-10-11T01:43:35.266Z,82.87
2016-10-11T01:43:56.975Z,82.74
2016-10-11T01:44:18.681Z,82.79
2016-10-11T01:44:40.397Z,82.81
2016-10-11T01:45:02.108Z,82.67
2016-10-11T01:45:23.835Z,82.44
2016-10-11T01:45:45.543Z,82.41
2016-10-11T01:46:38.524Z,82.72
2016-10-11T01:47:00.233Z,82.79
2016-10-11T01:47:21.945Z,82.91
2016-10-11T01:47:43.658Z,82.87
2016-10-11T01:48:05.371Z,82.92
2016-10-11T01:48:27.078Z,82.80
2016-10-11T01:48:48.787Z,82.69
2016-10-11T01:49:10.514Z,82.66
2016-10-11T01:49:32.215Z,82.68
2016-10-11T01:49:53.924Z,82.61
2016-10-11T01:50:15.633Z,82.60
2016-10-11T01:50:37.341Z,82.67
2016-10-11T01:50:59.054Z,82.82
2016-10-11T01:51:20.760Z,82.85
2016-10-11T01:51:42.473Z,82.90
2016-10-11T01:52:04.185Z,83.08
2016-10-11T01:52:25.892Z,83.18
2016-10-11T01:52:47.603Z,83.06
2016-10-11T01:53:09.313Z,82.98
2016-10-11T01:53:31.020Z,82.93
2016-10-11T01:53:52.736Z,83.01
2016-10-11T01:54:14.441Z,83.00
2016-10-11T01:54:36.148Z,83.08
2016-10-11T01:54:57.876Z,83.22
2016-10-11T01:55:19.592Z,83.16
2016-10-11T01:55:41.305Z,83.33
2016-10-11T01:56:03.027Z,83.46
2016-10-11T01:56:24.731Z,83.51
2016-10-11T01:56:46.438Z,83.59
2016-10-11T01:57:08.147Z,83.48
2016-10-11T01:57:29.865Z,83.42
2016-10-11T01:57:51.577Z,83.42
2016-10-11T01:58:13.287Z,83.34
2016-10-11T01:58:35.012Z,83.24
2016-10-11T01:58:56.736Z,83.16
2016-10-11T01:59:18.451Z,83.10
2016-10-11T01:59:40.166Z,83.23
2016-10-11T02:00:01.879Z,83.29
2016-10-11T02:00:23.589Z,83.43
2016-10-11T02:00:45.299Z,83.35
2016-10-11T02:01:07.013Z,83.17
2016-10-11T02:01:28.724Z,82.88
2016-10-11T02:01:50.447Z,82.67
2016-10-11T02:02:12.161Z,82.63
2016-10-11T02:02:38.644Z,82.82
2016-10-11T02:03:00.351Z,82.90
2016-10-11T02:03:22.058Z,82.92
2016-10-11T02:03:43.775Z,83.00
2016-10-11T02:04:05.483Z,83.12
2016-10-11T02:04:27.202Z,83.42
2016-10-11T02:04:48.909Z,83.54
2016-10-11T02:05:10.621Z,83.54
2016-10-11T02:05:32.329Z,83.53
2016-10-11T02:05:54.042Z,83.46
2016-10-11T02:06:15.753Z,83.20
2016-10-11T02:06:37.461Z,83.31
2016-10-11T02:06:59.175Z,83.34
2016-10-11T02:07:20.890Z,83.23
2016-10-11T02:07:42.600Z,83.06
2016-10-11T02:08:04.312Z,83.03
2016-10-11T02:08:26.025Z,82.90
2016-10-11T02:08:47.733Z,82.66
2016-10-11T02:09:09.455Z,82.40
2016-10-11T02:09:31.173Z,82.50
2016-10-11T02:09:52.884Z,82.60
2016-10-11T02:10:14.599Z,82.38
2016-10-11T02:10:36.317Z,82.31
2016-10-11T02:10:58.031Z,82.22
2016-10-11T02:11:19.740Z,82.16
2016-10-11T02:11:41.461Z,82.16
2016-10-11T02:12:03.169Z,82.41
2016-10-11T02:12:24.878Z,82.33
2016-10-11T02:12:46.590Z,82.39
2016-10-11T02:13:08.309Z,82.50
2016-10-11T02:13:30.081Z,82.59
2016-10-11T02:13:51.788Z,82.63
2016-10-11T02:14:13.496Z,82.51
2016-10-11T02:14:35.210Z,82.61
2016-10-11T02:14:56.923Z,82.58
2016-10-11T02:15:18.643Z,82.51
2016-10-11T02:15:40.353Z,82.53
2016-10-11T02:16:02.074Z,82.51
2016-10-11T02:16:23.793Z,82.50
2016-10-11T02:16:45.506Z,82.45
2016-10-11T02:17:07.235Z,82.29
2016-10-11T02:17:28.933Z,82.25
2016-10-11T02:17:50.645Z,82.19
2016-10-11T02:18:12.365Z,82.19
2016-10-11T02:18:34.076Z,82.23
2016-10-11T02:18:55.789Z,82.25
2016-10-11T02:19:17.499Z,82.26
2016-10-11T02:19:39.207Z,82.29
2016-10-11T02:20:00.918Z,82.11
2016-10-11T02:20:22.630Z,82.09
2016-10-11T02:20:44.343Z,81.98
2016-10-11T02:21:06.057Z,82.21
2016-10-11T02:21:27.768Z,82.40
2016-10-11T02:21:49.482Z,82.32
2016-10-11T02:22:11.190Z,82.36
2016-10-11T02:22:32.901Z,82.40
2016-10-11T02:22:54.614Z,82.35
2016-10-11T02:23:16.335Z,82.39
2016-10-11T02:23:38.040Z,82.40
2016-10-11T02:23:59.758Z,82.49
2016-10-11T02:24:21.469Z,82.48
2016-10-11T02:24:43.189Z,82.54
2016-10-11T02:25:04.915Z,82.59
2016-10-11T02:25:26.621Z,82.57
2016-10-11T02:25:48.332Z,82.29
2016-10-11T02:26:10.051Z,82.17
2016-10-11T02:26:31.759Z,82.11
2016-10-11T02:26:53.473Z,82.07
2016-10-11T02:27:15.191Z,82.03
2016-10-11T02:27:36.905Z,82.14
2016-10-11T02:27:58.620Z,82.14
2016-10-11T02:28:20.341Z,82.15
2016-10-11T02:28:42.054Z,82.11
2016-10-11T02:29:03.765Z,81.99
2016-10-11T02:29:25.487Z,81.97
2016-10-11T02:29:47.194Z,82.06
2016-10-11T02:30:08.910Z,82.20
2016-10-11T02:30:30.628Z,82.39
2016-10-11T02:30:52.347Z,82.43
2016-10-11T02:31:14.061Z,82.26
2016-10-11T02:31:35.778Z,82.21
2016-10-11T02:31:57.491Z,82.09
2016-10-11T02:32:19.201Z,82.32
2016-10-11T02:32:40.912Z,82.17
2016-10-11T02:33:02.620Z,82.18
2016-10-11T02:33:24.343Z,82.13
2016-10-11T02:33:46.057Z,82.16
2016-10-11T02:34:07.767Z,82.12
2016-10-11T02:34:34.250Z,82.08
2016-10-11T02:34:55.964Z,82.09
2016-10-11T02:35:17.682Z,82.32
2016-10-11T02:35:39.391Z,82.49
2016-10-11T02:36:01.104Z,82.34
2016-10-11T02:36:22.812Z,82.10
2016-10-11T02:36:44.518Z,82.28
2016-10-11T02:37:06.232Z,82.18
2016-10-11T02:37:27.945Z,82.01
2016-10-11T02:37:49.652Z,81.85
2016-10-11T02:38:11.363Z,81.67
2016-10-11T02:38:33.078Z,81.66
2016-10-11T02:38:54.791Z,81.59
2016-10-11T02:39:16.502Z,81.45
2016-10-11T02:39:38.221Z,81.74
2016-10-11T02:39:59.932Z,81.73
2016-10-11T02:40:21.647Z,81.77
2016-10-11T02:40:43.363Z,82.01
2016-10-11T02:41:05.083Z,81.99
2016-10-11T02:41:26.795Z,82.02
2016-10-11T02:41:48.512Z,81.97
2016-10-11T02:42:10.222Z,81.96
2016-10-11T02:42:31.955Z,81.74
2016-10-11T02:42:53.670Z,81.62
2016-10-11T02:43:15.389Z,81.70
2016-10-11T02:43:37.101Z,81.72
2016-10-11T02:43:58.813Z,81.68
2016-10-11T02:44:20.523Z,81.77
2016-10-11T02:44:42.235Z,81.85
2016-10-11T02:45:03.949Z,81.72
2016-10-11T02:45:25.666Z,81.91
2016-10-11T02:45:47.377Z,81.86
2016-10-11T02:46:09.088Z,81.91
2016-10-11T02:46:30.804Z,81.72
2016-10-11T02:46:52.518Z,81.57
2016-10-11T02:47:14.228Z,81.42
2016-10-11T02:47:35.942Z,81.49
2016-10-11T02:47:57.661Z,81.59
2016-10-11T02:48:19.376Z,81.63
2016-10-11T02:48:41.101Z,81.66
2016-10-11T02:49:02.801Z,81.67
2016-10-11T02:49:24.526Z,81.69
2016-10-11T02:49:46.238Z,81.98
2016-10-11T02:50:07.951Z,82.01
2016-10-11T02:50:29.670Z,82.18
2016-10-11T02:50:52.382Z,81.94
2016-10-11T02:51:14.089Z,81.91
2016-10-11T02:51:35.800Z,81.84
2016-10-11T02:51:57.526Z,81.70
2016-10-11T02:52:19.242Z,81.73
2016-10-11T02:52:40.950Z,81.67
2016-10-11T02:53:02.659Z,81.46
2016-10-11T02:53:24.380Z,81.43
2016-10-11T02:53:46.091Z,81.47
2016-10-11T02:54:07.797Z,81.50
2016-10-11T02:54:29.513Z,81.56
2016-10-11T02:54:51.225Z,81.71
2016-10-11T02:55:12.935Z,81.70
2016-10-11T02:55:34.648Z,81.68
2016-10-11T02:55:56.449Z,81.63
2016-10-11T02:56:18.159Z,81.52
2016-10-11T02:56:39.877Z,81.55
2016-10-11T02:57:01.587Z,81.66
2016-10-11T02:57:23.301Z,81.80
2016-10-11T02:57:45.012Z,81.75
2016-10-11T02:58:06.726Z,82.04
2016-10-11T02:58:28.441Z,82.19
2016-10-11T02:58:50.163Z,82.07
2016-10-11T02:59:11.872Z,82.07
2016-10-11T02:59:33.582Z,82.02
2016-10-11T02:59:55.294Z,82.13
2016-10-11T03:00:17.006Z,82.09
2016-10-11T03:00:38.712Z,82.03
2016-10-11T03:01:00.425Z,82.01
2016-10-11T03:01:22.136Z,81.84
2016-10-11T03:01:43.841Z,81.74
2016-10-11T03:02:05.559Z,81.65
2016-10-11T03:02:27.271Z,81.81
2016-10-11T03:02:48.987Z,81.73
2016-10-11T03:03:10.704Z,81.54
2016-10-11T03:03:32.413Z,81.61
2016-10-11T03:03:54.123Z,81.65
2016-10-11T03:04:15.833Z,81.79
2016-10-11T03:04:37.747Z,81.81
2016-10-11T03:04:59.466Z,81.67
2016-10-11T03:05:21.171Z,81.63
2016-10-11T03:05:42.886Z,81.73
2016-10-11T03:06:04.603Z,81.78
2016-10-11T03:06:26.312Z,81.73
2016-10-11T03:06:48.023Z,81.85
2016-10-11T03:07:09.734Z,81.88
2016-10-11T03:07:31.451Z,81.86
2016-10-11T03:07:53.163Z,82.00
2016-10-11T03:08:14.876Z,82.16
2016-10-11T03:08:36.582Z,82.07
2016-10-11T03:08:58.304Z,81.99
2016-10-11T03:09:20.010Z,81.79
2016-10-11T03:09:41.721Z,81.65
2016-10-11T03:10:03.436Z,81.70
2016-10-11T03:10:25.142Z,81.56
2016-10-11T03:10:46.851Z,81.52
2016-10-11T03:11:08.561Z,81.55
2016-10-11T03:11:30.280Z,81.47
2016-10-11T03:11:51.992Z,81.56
2016-10-11T03:12:13.707Z,81.54
2016-10-11T03:12:35.418Z,81.40
2016-10-11T03:12:57.126Z,81.39
2016-10-11T03:13:18.839Z,81.44
2016-10-11T03:13:40.555Z,81.32
2016-10-11T03:14:02.270Z,81.22
2016-10-11T03:14:23.980Z,81.25
2016-10-11T03:14:45.702Z,81.35
2016-10-11T03:15:07.426Z,81.47
2016-10-11T03:15:29.160Z,81.58
2016-10-11T03:15:50.876Z,81.47
2016-10-11T03:16:12.585Z,81.41
2016-10-11T03:16:43.843Z,81.29
2016-10-11T03:17:05.568Z,81.22
2016-10-11T03:17:27.287Z,81.46
2016-10-11T03:17:49.999Z,81.66
2016-10-11T03:18:11.707Z,81.60
2016-10-11T03:19:15.224Z,81.64
2016-10-11T03:19:36.938Z,81.66
2016-10-11T03:19:58.655Z,81.71
2016-10-11T03:20:20.365Z,81.75
2016-10-11T03:20:42.078Z,81.68
2016-10-11T03:21:03.792Z,81.77
2016-10-11T03:21:25.502Z,81.96
2016-10-11T03:21:47.216Z,82.05
2016-10-11T03:22:08.931Z,82.16
2016-10-11T03:22:30.644Z,82.16
2016-10-11T03:22:52.351Z,81.96
2016-10-11T03:23:14.060Z,81.85
2016-10-11T03:23:35.772Z,81.81
2016-10-11T03:23:57.480Z,81.85
2016-10-11T03:24:19.194Z,82.00
2016-10-11T03:24:40.910Z,82.16
2016-10-11T03:25:02.625Z,82.27
2016-10-11T03:25:24.335Z,82.42
2016-10-11T03:25:46.052Z,82.42
2016-10-11T03:26:07.762Z,82.15
2016-10-11T03:26:29.467Z,82.16
2016-10-11T03:26:51.175Z,82.11
2016-10-11T03:27:12.895Z,82.13
2016-10-11T03:27:34.601Z,82.17
2016-10-11T03:27:56.312Z,82.29
2016-10-11T03:28:18.022Z,82.35
2016-10-11T03:28:39.732Z,82.23
2016-10-11T03:29:01.439Z,82.23
2016-10-11T03:29:23.160Z,82.27
2016-10-11T03:29:44.878Z,82.19
2016-10-11T03:30:06.587Z,82.25
2016-10-11T03:30:28.297Z,82.12
2016-10-11T03:30:50.016Z,81.99
2016-10-11T03:31:18.502Z,81.96
2016-10-11T03:31:40.222Z,82.03
2016-10-11T03:32:01.929Z,82.07
2016-10-11T03:32:23.650Z,82.11
2016-10-11T03:32:45.362Z,82.32
2016-10-11T03:33:07.076Z,82.51
2016-10-11T03:33:28.785Z,82.30
2016-10-11T03:33:50.492Z,81.95
2016-10-11T03:34:12.198Z,81.91
2016-10-11T03:34:33.907Z,81.89
2016-10-11T03:34:55.613Z,81.84
2016-10-11T03:35:17.324Z,82.06
2016-10-11T03:35:39.037Z,82.25
2016-10-11T03:36:00.740Z,82.48
2016-10-11T03:36:22.451Z,82.66
2016-10-11T03:36:44.169Z,82.53
2016-10-11T03:37:05.877Z,82.38
2016-10-11T03:37:27.604Z,82.37
2016-10-11T03:37:49.308Z,82.53
2016-10-11T03:38:11.026Z,82.44
2016-10-11T03:38:32.733Z,82.34
2016-10-11T03:38:54.450Z,82.44
2016-10-11T03:39:16.170Z,82.31
2016-10-11T03:39:37.874Z,82.27
2016-10-11T03:39:59.583Z,82.38
2016-10-11T03:40:21.297Z,82.41
2016-10-11T03:40:43.007Z,82.24
2016-10-11T03:41:04.724Z,82.21
2016-10-11T03:41:26.437Z,82.26
2016-10-11T03:41:48.142Z,82.08
2016-10-11T03:42:09.858Z,82.05
2016-10-11T03:42:31.570Z,82.02
2016-10-11T03:42:53.285Z,82.06
2016-10-11T03:43:14.997Z,81.92
2016-10-11T03:43:36.710Z,81.91
2016-10-11T03:43:58.420Z,81.80
2016-10-11T03:44:20.135Z,81.91
2016-10-11T03:44:41.840Z,82.16
2016-10-11T03:45:03.549Z,82.23
2016-10-11T03:45:25.273Z,82.66
2016-10-11T03:45:46.999Z,82.74
2016-10-11T03:46:08.716Z,82.53
2016-10-11T03:46:35.096Z,82.42
2016-10-11T03:46:56.814Z,82.44
2016-10-11T03:47:18.527Z,82.58
2016-10-11T03:47:40.249Z,82.79
2016-10-11T03:48:01.958Z,82.76
2016-10-11T03:48:23.667Z,83.00
2016-10-11T03:48:45.381Z,82.79
2016-10-11T03:49:07.094Z,82.64
2016-10-11T03:49:28.801Z,82.48
2016-10-11T03:49:50.516Z,82.25
2016-10-11T03:50:12.263Z,82.28
2016-10-11T03:50:33.985Z,82.16
2016-10-11T03:50:55.694Z,82.13
2016-10-11T03:51:17.410Z,82.18
2016-10-11T03:51:39.120Z,82.24
2016-10-11T03:52:00.834Z,82.33
2016-10-11T03:52:22.545Z,82.34
2016-10-11T03:52:44.263Z,82.19
2016-10-11T03:53:05.980Z,82.18
2016-10-11T03:53:27.689Z,82.19
2016-10-11T03:53:49.407Z,82.42
2016-10-11T03:54:11.116Z,82.30
2016-10-11T03:54:32.829Z,82.13
2016-10-11T03:54:54.540Z,82.17
2016-10-11T03:55:16.259Z,82.15
2016-10-11T03:55:37.967Z,82.04
2016-10-11T03:55:59.684Z,81.88
2016-10-11T03:56:21.401Z,81.85
2016-10-11T03:56:43.113Z,81.85
2016-10-11T03:57:04.832Z,82.10
2016-10-11T03:57:26.538Z,82.45
2016-10-11T03:57:48.269Z,82.47
2016-10-11T03:58:09.985Z,82.69
2016-10-11T03:58:31.689Z,82.82
2016-10-11T03:58:53.414Z,83.00
2016-10-11T03:59:15.128Z,83.24
2016-10-11T03:59:36.836Z,83.38
2016-10-11T04:00:01.203Z,83.28
2016-10-11T04:00:22.918Z,83.20
2016-10-11T04:00:44.628Z,83.05
2016-10-11T04:01:06.346Z,83.02
2016-10-11T04:01:28.064Z,82.92
2016-10-11T04:01:49.771Z,82.91
2016-10-11T04:02:11.490Z,82.94
2016-10-11T04:02:33.218Z,83.05
2016-10-11T04:02:54.941Z,83.13
2016-10-11T04:03:16.664Z,83.11
2016-10-11T04:03:38.375Z,82.87
2016-10-11T04:04:00.093Z,82.85
2016-10-11T04:04:21.802Z,82.64
2016-10-11T04:04:44.516Z,82.61
2016-10-11T04:05:06.236Z,82.70
2016-10-11T04:05:27.946Z,82.64
2016-10-11T04:05:49.654Z,82.77
2016-10-11T04:06:11.367Z,82.92
2016-10-11T04:06:33.080Z,83.13
2016-10-11T04:06:54.790Z,83.26
2016-10-11T04:07:16.508Z,83.33
2016-10-11T04:07:38.215Z,83.18
2016-10-11T04:07:59.933Z,83.04
2016-10-11T04:08:21.640Z,83.15
2016-10-11T04:08:43.352Z,83.37
2016-10-11T04:09:05.067Z,83.48
2016-10-11T04:09:26.778Z,83.58
2016-10-11T04:09:48.503Z,83.50
2016-10-11T04:10:10.232Z,83.25
2016-10-11T04:10:31.953Z,83.08
2016-10-11T04:10:53.664Z,83.17
2016-10-11T04:11:15.373Z,83.19
2016-10-11T04:11:37.094Z,83.07
2016-10-11T04:11:58.810Z,82.93
2016-10-11T04:12:20.524Z,82.82
2016-10-11T04:12:42.241Z,82.62
2016-10-11T04:13:03.958Z,82.56
2016-10-11T04:13:25.665Z,82.44
2016-10-11T04:13:47.382Z,82.69
2016-10-11T04:14:09.099Z,82.76
2016-10-11T04:14:30.802Z,82.97
2016-10-11T04:14:52.515Z,83.33
2016-10-11T04:15:14.226Z,83.64
2016-10-11T04:15:35.936Z,83.51
2016-10-11T04:15:57.658Z,83.44
2016-10-11T04:16:19.367Z,83.54
2016-10-11T04:16:41.082Z,83.58
2016-10-11T04:17:02.795Z,83.44
2016-10-11T04:17:24.510Z,83.25
2016-10-11T04:17:46.220Z,82.95
2016-10-11T04:18:07.931Z,82.75
2016-10-11T04:18:29.655Z,82.64
2016-10-11T04:18:51.367Z,82.61
2016-10-11T04:19:13.082Z,82.64
2016-10-11T04:19:34.803Z,82.53
2016-10-11T04:19:56.511Z,82.54
2016-10-11T04:20:18.221Z,82.46
2016-10-11T04:20:39.937Z,82.39
2016-10-11T04:21:01.681Z,82.74
2016-10-11T04:21:23.393Z,82.73
2016-10-11T04:21:45.107Z,83.04
2016-10-11T04:22:06.816Z,83.09
2016-10-11T04:22:28.531Z,83.21
2016-10-11T04:22:50.241Z,83.26
2016-10-11T04:23:11.952Z,83.40
2016-10-11T04:23:33.668Z,83.46
2016-10-11T04:23:55.384Z,83.36
2016-10-11T04:24:17.102Z,83.24
2016-10-11T04:24:38.813Z,83.21
2016-10-11T04:25:00.522Z,83.38
2016-10-11T04:25:22.228Z,83.33
2016-10-11T04:25:43.939Z,83.30
2016-10-11T04:26:05.667Z,83.18
2016-10-11T04:26:27.379Z,83.24
2016-10-11T04:26:49.093Z,83.34
2016-10-11T04:27:10.804Z,83.81
2016-10-11T04:27:32.543Z,84.00
2016-10-11T04:27:54.255Z,84.05
2016-10-11T04:28:15.965Z,84.24
2016-10-11T04:28:37.684Z,84.37
2016-10-11T04:28:59.395Z,84.58
2016-10-11T04:29:21.110Z,84.62
2016-10-11T04:29:42.821Z,84.66
2016-10-11T04:30:04.540Z,84.47
2016-10-11T04:30:27.253Z,84.53
2016-10-11T04:30:49.052Z,84.17
2016-10-11T04:31:10.755Z,83.92
2016-10-11T04:31:32.475Z,83.85
2016-10-11T04:31:54.191Z,83.62
2016-10-11T04:32:15.908Z,83.43
2016-10-11T04:32:37.621Z,83.36
2016-10-11T04:32:59.344Z,82.96
2016-10-11T04:33:21.058Z,82.84
2016-10-11T04:33:42.775Z,82.73
2016-10-11T04:34:04.495Z,82.55
2016-10-11T04:34:26.212Z,82.59
2016-10-11T04:34:47.928Z,82.68
2016-10-11T04:35:09.642Z,82.82
2016-10-11T04:35:31.352Z,82.91
2016-10-11T04:35:53.062Z,82.96
2016-10-11T04:36:14.775Z,83.17
2016-10-11T04:36:36.498Z,83.23
2016-10-11T04:36:58.208Z,83.21
2016-10-11T04:37:19.924Z,83.18
2016-10-11T04:37:41.637Z,83.00
2016-10-11T04:38:03.352Z,83.08
2016-10-11T04:38:25.065Z,82.99
2016-10-11T04:38:46.775Z,83.14
2016-10-11T04:39:08.489Z,83.35
2016-10-11T04:39:30.207Z,83.44
2016-10-11T04:39:51.927Z,83.47
2016-10-11T04:40:13.636Z,83.66
2016-10-11T04:40:35.363Z,83.90
2016-10-11T04:40:57.074Z,84.04
2016-10-11T04:41:18.788Z,84.21
2016-10-11T04:41:40.499Z,84.14
2016-10-11T04:42:02.213Z,83.84
2016-10-11T04:42:23.921Z,83.60